Terminal Aerodrome Forecast
Issued by NWS

Current Version | Previous Version | Text Only | Print | Product List | Glossary On
Versions: 1 2 3 4 5 6 7 8 9 10 11 12 13 14 15 16 17 18 19 20 21 22
000
FTUS45 KSLC 182354
TAFEVW
TAF
KEVW 182354Z 1900/1924 34006KT 1SM -SN BR BKN015 OVC025
      TEMPO 1900/1902 1/2SM FZFG VV008
     FM190200 04007KT 1/2SM SN FZFG VV006
     FM190700 03008KT 1SM -SN BR OVC009=

USA.gov is the U.S. government's official web portal to all federal, state and local government web resources and services.